Time;durP1;ratioP1;P1;durP2;ratioP2;P2;SDS_P1;SDS_P2;PMS_P1;PMS_P2;Temp;Humidity;BMP_temperature;BMP_pressure;BME280_temperature;BME280_humidity;BME280_pressure;Samples;Min_cycle;Max_cycle;Signal;HPM_P1;HPM_P2
2022/11/17 00:02:06;;;;;;;4.67;4.27;;;;;;;;;;5051019;28;20226;-45
2022/11/17 00:04:32;;;;;;;5.00;4.50;;;;;;;;;;5051231;28;20434;-44
2022/11/17 00:06:58;;;;;;;4.57;4.17;;;;;;;;;;5051038;28;20488;-44
2022/11/17 00:09:24;;;;;;;5.03;4.53;;;;;;;;;;5050900;28;20630;-45
2022/11/17 00:14:39;;;;;;;4.87;4.47;;;;;;;;;;5050964;28;20195;-44
2022/11/17 00:17:06;;;;;;;4.83;4.43;;;;;;;;;;5050965;28;20209;-45
2022/11/17 00:22:17;;;;;;;5.10;4.60;;;;;;;;;;5050793;28;20285;-45
2022/11/17 00:24:43;;;;;;;4.73;4.20;;;;;;;;;;5050617;28;20504;-44
2022/11/17 00:27:09;;;;;;;4.70;4.30;;;;;;;;;;5050664;28;20552;-45
2022/11/17 00:29:36;;;;;;;4.57;4.17;;;;;;;;;;5062884;28;20203;-45
2022/11/17 00:34:47;;;;;;;4.93;4.43;;;;;;;;;;5070783;28;20516;-45
2022/11/17 00:37:14;;;;;;;4.90;4.50;;;;;;;;;;5070339;28;20753;-45
2022/11/17 00:39:40;;;;;;;4.73;4.07;;;;;;;;;;5070820;28;20216;-45
2022/11/17 00:42:06;;;;;;;5.13;4.47;;;;;;;;;;5070573;28;20688;-44
2022/11/17 00:44:32;;;;;;;4.67;4.27;;;;;;;;;;5070883;28;20195;-44
2022/11/17 00:47:00;;;;;;;5.67;4.67;;;;;;;;;;5070758;28;20207;-44
2022/11/17 00:49:26;;;;;;;5.47;4.90;;;;;;;;;;5070240;28;20235;-45
2022/11/17 00:51:52;;;;;;;5.43;4.80;;;;;;;;;;5072638;28;20196;-44
2022/11/17 00:54:18;;;;;;;5.37;4.87;;;;;;;;;;5074183;28;20278;-44
2022/11/17 00:56:44;;;;;;;5.57;5.07;;;;;;;;;;5074224;28;20760;-45
2022/11/17 00:59:10;;;;;;;5.60;5.10;;;;;;;;;;5070369;28;20230;-45
2022/11/17 01:01:37;;;;;;;5.20;4.80;;;;;;;;;;5073982;28;20253;-44
2022/11/17 01:04:05;;;;;;;5.17;4.67;;;;;;;;;;5074004;28;20253;-44
2022/11/17 01:06:32;;;;;;;5.50;5.03;;;;;;;;;;5074025;28;20204;-44
2022/11/17 01:08:59;;;;;;;5.33;4.83;;;;;;;;;;5073951;28;20211;-44
2022/11/17 01:11:25;;;;;;;5.80;5.30;;;;;;;;;;5073856;28;20604;-44
2022/11/17 01:13:53;;;;;;;5.63;5.13;;;;;;;;;;5073688;28;20203;-45
2022/11/17 01:16:19;;;;;;;4.97;4.57;;;;;;;;;;5073892;28;20249;-45
2022/11/17 01:18:47;;;;;;;5.83;5.23;;;;;;;;;;5073966;28;20436;-45
2022/11/17 01:21:16;;;;;;;6.97;5.03;;;;;;;;;;5073477;28;20987;-45
2022/11/17 01:23:43;;;;;;;6.00;5.17;;;;;;;;;;5073704;28;20990;-45
2022/11/17 01:26:10;;;;;;;5.80;5.30;;;;;;;;;;5073504;28;20196;-45
2022/11/17 01:28:36;;;;;;;5.37;4.93;;;;;;;;;;5073912;28;20292;-45
2022/11/17 01:31:03;;;;;;;5.10;4.67;;;;;;;;;;5073585;28;20464;-45
2022/11/17 01:33:30;;;;;;;5.63;5.07;;;;;;;;;;5073642;28;20442;-45
2022/11/17 01:35:59;;;;;;;5.47;4.97;;;;;;;;;;5073415;28;20550;-45
2022/11/17 01:38:26;;;;;;;5.60;5.10;;;;;;;;;;5073442;28;20434;-45
2022/11/17 01:40:53;;;;;;;5.03;4.53;;;;;;;;;;5072934;28;20523;-44
2022/11/17 01:43:33;;;;;;;5.43;4.93;;;;;;;;;;5070569;28;20426;-44
2022/11/17 01:46:00;;;;;;;5.87;5.37;;;;;;;;;;5072603;28;20420;-44
2022/11/17 01:48:26;;;;;;;5.93;5.43;;;;;;;;;;5073071;28;20473;-44
2022/11/17 01:50:52;;;;;;;5.40;4.93;;;;;;;;;;5073190;28;20203;-44
2022/11/17 01:53:19;;;;;;;5.37;4.87;;;;;;;;;;5073203;28;20434;-44
2022/11/17 01:55:50;;;;;;;5.57;5.03;;;;;;;;;;5073290;28;20223;-44
2022/11/17 01:58:19;;;;;;;6.87;5.57;;;;;;;;;;5072991;28;20438;-44
2022/11/17 02:00:45;;;;;;;5.97;5.47;;;;;;;;;;5073082;28;20231;-44
2022/11/17 02:03:11;;;;;;;6.17;5.57;;;;;;;;;;5071834;28;20461;-44
2022/11/17 02:05:41;;;;;;;5.70;5.20;;;;;;;;;;5073063;28;20500;-44
2022/11/17 02:08:08;;;;;;;5.40;4.97;;;;;;;;;;5072845;28;20461;-44
2022/11/17 02:10:34;;;;;;;6.17;5.57;;;;;;;;;;5071720;28;20836;-44
2022/11/17 02:13:02;;;;;;;5.80;5.30;;;;;;;;;;5069265;28;20203;-44
2022/11/17 02:15:28;;;;;;;5.90;5.40;;;;;;;;;;5073061;28;20437;-44
2022/11/17 02:17:55;;;;;;;5.50;5.00;;;;;;;;;;5072976;28;20541;-44
2022/11/17 02:20:28;;;;;;;6.33;5.80;;;;;;;;;;5072810;28;20470;-44
2022/11/17 02:23:03;;;;;;;6.30;5.70;;;;;;;;;;5073233;28;20284;-44
2022/11/17 02:25:50;;;;;;;6.73;6.00;;;;;;;;;;5073012;28;20199;-44
2022/11/17 02:28:20;;;;;;;7.20;6.10;;;;;;;;;;5067235;28;21184;-44
2022/11/17 02:30:50;;;;;;;6.00;5.47;;;;;;;;;;5072010;28;20479;-44
2022/11/17 02:33:21;;;;;;;6.60;6.00;;;;;;;;;;5072698;28;20477;-43
2022/11/17 02:35:49;;;;;;;6.10;5.60;;;;;;;;;;5072913;28;20716;-44
2022/11/17 02:38:20;;;;;;;6.60;5.93;;;;;;;;;;5072766;28;20434;-44
2022/11/17 02:40:48;;;;;;;6.60;5.93;;;;;;;;;;5072696;28;20980;-44
2022/11/17 02:46:03;;;;;;;6.00;5.40;;;;;;;;;;5072754;28;20449;-44
2022/11/17 02:48:31;;;;;;;6.33;5.73;;;;;;;;;;5072502;28;20491;-44
2022/11/17 02:50:58;;;;;;;6.50;5.90;;;;;;;;;;5072600;28;20433;-44
2022/11/17 02:53:25;;;;;;;6.50;5.20;;;;;;;;;;5072210;28;20478;-45
2022/11/17 02:55:51;;;;;;;6.03;5.50;;;;;;;;;;5072589;28;20204;-45
2022/11/17 02:58:17;;;;;;;5.73;5.23;;;;;;;;;;5072441;28;20438;-45
2022/11/17 03:00:49;;;;;;;5.17;4.60;;;;;;;;;;5070586;28;20223;-45
2022/11/17 03:03:22;;;;;;;6.37;5.60;;;;;;;;;;5072440;28;20438;-44
2022/11/17 03:05:56;;;;;;;5.90;5.30;;;;;;;;;;5072323;28;20450;-45
2022/11/17 03:08:28;;;;;;;5.50;5.10;;;;;;;;;;5072190;28;20457;-45
2022/11/17 03:10:57;;;;;;;5.50;4.87;;;;;;;;;;5071817;28;20442;-45
2022/11/17 03:13:25;;;;;;;5.73;4.80;;;;;;;;;;5070435;28;20491;-45
2022/11/17 03:15:54;;;;;;;6.10;5.50;;;;;;;;;;5071778;28;20454;-45
2022/11/17 03:18:26;;;;;;;5.57;5.07;;;;;;;;;;5071459;28;20797;-45
2022/11/17 03:20:57;;;;;;;5.73;5.13;;;;;;;;;;5071758;28;20478;-45
2022/11/17 03:23:27;;;;;;;5.43;4.93;;;;;;;;;;5071527;28;20804;-45
2022/11/17 03:25:54;;;;;;;6.23;5.60;;;;;;;;;;5071876;28;20457;-45
2022/11/17 03:28:21;;;;;;;6.03;5.43;;;;;;;;;;5071840;28;20434;-43
2022/11/17 03:30:48;;;;;;;5.80;5.23;;;;;;;;;;5071717;28;20830;-44
2022/11/17 03:33:16;;;;;;;5.83;5.27;;;;;;;;;;5071517;28;20955;-44
2022/11/17 03:35:46;;;;;;;6.30;5.70;;;;;;;;;;5071626;28;20967;-44
2022/11/17 03:38:14;;;;;;;5.87;5.37;;;;;;;;;;5071648;28;20456;-43
2022/11/17 03:40:42;;;;;;;6.83;6.03;;;;;;;;;;5071389;28;20481;-43
2022/11/17 03:43:09;;;;;;;6.30;5.70;;;;;;;;;;5070481;28;20433;-43
2022/11/17 03:45:37;;;;;;;6.00;5.37;;;;;;;;;;5071403;28;20448;-44
2022/11/17 03:48:06;;;;;;;5.90;5.30;;;;;;;;;;5071303;28;20507;-44
2022/11/17 03:50:34;;;;;;;6.10;5.50;;;;;;;;;;5071332;28;20481;-44
2022/11/17 03:53:02;;;;;;;5.63;5.13;;;;;;;;;;5071549;28;20801;-44
2022/11/17 03:55:33;;;;;;;5.13;4.73;;;;;;;;;;5071503;28;20438;-44
2022/11/17 03:58:00;;;;;;;5.67;5.07;;;;;;;;;;5071452;28;20426;-46
2022/11/17 04:00:27;;;;;;;6.40;5.33;;;;;;;;;;5071164;28;20564;-43
2022/11/17 04:02:54;;;;;;;6.67;5.37;;;;;;;;;;5071255;28;20438;-44
2022/11/17 04:05:20;;;;;;;5.97;5.47;;;;;;;;;;5071125;28;20810;-44
2022/11/17 04:07:47;;;;;;;6.10;5.50;;;;;;;;;;5071178;28;20842;-44
2022/11/17 04:10:16;;;;;;;5.90;5.30;;;;;;;;;;5071246;28;20487;-43
2022/11/17 04:18:11;;;;;;;6.47;5.10;;;;;;;;;;5071190;28;20425;-44
2022/11/17 04:20:37;;;;;;;6.57;5.97;;;;;;;;;;5071177;28;20327;-44
2022/11/17 04:23:07;;;;;;;6.87;6.20;;;;;;;;;;5071241;28;20438;-43
2022/11/17 04:28:38;;;;;;;6.47;5.87;;;;;;;;;;5075272;28;20447;-44
2022/11/17 04:31:05;;;;;;;7.50;6.53;;;;;;;;;;5074984;28;20429;-44
2022/11/17 04:33:31;;;;;;;6.63;6.03;;;;;;;;;;5074686;28;20434;-44
2022/11/17 04:35:57;;;;;;;6.60;6.00;;;;;;;;;;5074759;28;20434;-44
2022/11/17 04:38:23;;;;;;;7.07;6.47;;;;;;;;;;5074542;28;20440;-44
2022/11/17 04:43:37;;;;;;;7.40;6.80;;;;;;;;;;5074588;28;20557;-44
2022/11/17 04:46:04;;;;;;;7.20;6.50;;;;;;;;;;5074661;28;20550;-44
2022/11/17 04:48:30;;;;;;;7.40;6.70;;;;;;;;;;5074174;28;20550;-44
2022/11/17 04:50:56;;;;;;;7.00;6.30;;;;;;;;;;5074163;28;20866;-44
2022/11/17 04:53:23;;;;;;;6.73;6.00;;;;;;;;;;5073706;28;20202;-44
2022/11/17 04:55:50;;;;;;;7.33;6.63;;;;;;;;;;5073950;28;20483;-44
2022/11/17 04:58:16;;;;;;;7.70;6.63;;;;;;;;;;5074222;28;20446;-44
2022/11/17 05:00:42;;;;;;;7.00;6.40;;;;;;;;;;5074291;28;20580;-44
2022/11/17 05:03:08;;;;;;;7.00;6.30;;;;;;;;;;5074237;28;20430;-44
2022/11/17 05:05:34;;;;;;;6.70;6.10;;;;;;;;;;5073980;28;20924;-44
2022/11/17 05:08:00;;;;;;;6.77;6.17;;;;;;;;;;5074232;28;20481;-44
2022/11/17 05:13:20;;;;;;;7.27;6.57;;;;;;;;;;5074049;28;20837;-44
2022/11/17 05:18:31;;;;;;;6.67;5.93;;;;;;;;;;5073979;28;20421;-44
2022/11/17 05:21:00;;;;;;;7.43;6.73;;;;;;;;;;5073842;28;20477;-44
2022/11/17 05:26:11;;;;;;;7.80;6.93;;;;;;;;;;5073857;28;20420;-44
2022/11/17 05:28:38;;;;;;;10.27;7.20;;;;;;;;;;5073835;28;20437;-44
2022/11/17 05:31:05;;;;;;;6.63;6.03;;;;;;;;;;5073761;28;20448;-44
2022/11/17 05:33:31;;;;;;;7.27;6.57;;;;;;;;;;5073245;28;21206;-44
2022/11/17 05:35:57;;;;;;;7.67;6.87;;;;;;;;;;5072891;28;20430;-44
2022/11/17 05:38:23;;;;;;;6.93;6.33;;;;;;;;;;5072830;28;20438;-44
2022/11/17 05:40:49;;;;;;;7.17;6.50;;;;;;;;;;5073576;28;20496;-44
2022/11/17 05:43:15;;;;;;;8.00;7.20;;;;;;;;;;5073500;28;20203;-44
2022/11/17 05:45:44;;;;;;;7.73;6.93;;;;;;;;;;5073434;28;20203;-44
2022/11/17 05:48:10;;;;;;;7.67;6.87;;;;;;;;;;5073180;28;20251;-44
2022/11/17 05:50:36;;;;;;;7.70;7.00;;;;;;;;;;5073206;28;20195;-44
2022/11/17 05:53:03;;;;;;;7.73;6.83;;;;;;;;;;5073419;28;20430;-44
2022/11/17 05:55:29;;;;;;;7.73;6.93;;;;;;;;;;5073083;28;20449;-44
2022/11/17 05:57:57;;;;;;;8.23;7.33;;;;;;;;;;5073231;28;20448;-44
2022/11/17 06:00:23;;;;;;;8.17;6.83;;;;;;;;;;5072510;28;20588;-43
2022/11/17 06:02:51;;;;;;;8.07;7.27;;;;;;;;;;5072102;28;20487;-45
2022/11/17 06:05:17;;;;;;;7.90;7.00;;;;;;;;;;5072949;28;20438;-45
2022/11/17 06:07:44;;;;;;;7.60;6.83;;;;;;;;;;5073055;28;20448;-45
2022/11/17 06:10:10;;;;;;;6.83;6.20;;;;;;;;;;5072834;28;20426;-44
2022/11/17 06:12:36;;;;;;;6.80;6.10;;;;;;;;;;5072658;28;20444;-45
2022/11/17 06:15:02;;;;;;;7.13;6.13;;;;;;;;;;5072711;28;20954;-45
2022/11/17 06:17:31;;;;;;;6.53;5.83;;;;;;;;;;5072527;28;20425;-44
2022/11/17 06:20:02;;;;;;;10.30;7.17;;;;;;;;;;5072386;28;20472;-44
2022/11/17 06:22:29;;;;;;;8.40;7.57;;;;;;;;;;5072361;28;20445;-44
2022/11/17 06:24:55;;;;;;;9.70;8.07;;;;;;;;;;5072443;28;21142;-44
2022/11/17 06:27:21;;;;;;;9.20;8.20;;;;;;;;;;5072266;28;20454;-44
2022/11/17 06:29:48;;;;;;;9.23;8.33;;;;;;;;;;5072574;28;20425;-44
2022/11/17 06:32:15;;;;;;;9.17;8.27;;;;;;;;;;5072458;28;20445;-44
2022/11/17 06:34:41;;;;;;;8.60;7.80;;;;;;;;;;5072097;28;20900;-44
2022/11/17 06:37:10;;;;;;;8.67;7.60;;;;;;;;;;5072286;28;20954;-44
2022/11/17 06:39:36;;;;;;;8.80;7.67;;;;;;;;;;5072235;28;20470;-44
2022/11/17 06:42:02;;;;;;;9.20;8.20;;;;;;;;;;5072218;28;20505;-44
2022/11/17 06:44:28;;;;;;;7.57;6.67;;;;;;;;;;5072167;28;20206;-44
2022/11/17 06:46:54;;;;;;;8.63;7.60;;;;;;;;;;5072050;28;20519;-44
2022/11/17 06:49:20;;;;;;;10.63;7.80;;;;;;;;;;5071098;28;20992;-44
2022/11/17 06:51:46;;;;;;;10.23;8.20;;;;;;;;;;5072039;28;20928;-44
2022/11/17 06:54:13;;;;;;;9.30;8.40;;;;;;;;;;5072036;28;20946;-44
2022/11/17 06:56:40;;;;;;;8.60;7.70;;;;;;;;;;5071895;28;20920;-43
2022/11/17 06:59:06;;;;;;;8.37;7.53;;;;;;;;;;5072072;28;20430;-44
2022/11/17 07:01:32;;;;;;;9.57;8.37;;;;;;;;;;5071860;28;20488;-44
2022/11/17 07:03:58;;;;;;;9.13;8.13;;;;;;;;;;5071690;28;20434;-44
2022/11/17 07:06:24;;;;;;;10.00;8.57;;;;;;;;;;5070656;28;20449;-44
2022/11/17 07:08:50;;;;;;;10.23;8.20;;;;;;;;;;5071828;28;20817;-44
2022/11/17 07:11:17;;;;;;;10.33;9.00;;;;;;;;;;5070397;28;20446;-43
2022/11/17 07:13:43;;;;;;;10.07;8.80;;;;;;;;;;5072389;28;20492;-43
2022/11/17 07:16:11;;;;;;;11.93;9.30;;;;;;;;;;5070535;28;20966;-44
2022/11/17 07:18:37;;;;;;;11.53;10.03;;;;;;;;;;5071458;28;20430;-44
2022/11/17 07:21:04;;;;;;;11.13;10.03;;;;;;;;;;5070900;28;20921;-45
2022/11/17 07:23:31;;;;;;;11.90;9.67;;;;;;;;;;5070685;28;20954;-45
2022/11/17 07:25:57;;;;;;;12.77;9.30;;;;;;;;;;5071336;28;20480;-45
2022/11/17 07:28:24;;;;;;;10.53;9.50;;;;;;;;;;5071512;28;20458;-45
2022/11/17 07:30:50;;;;;;;10.80;9.70;;;;;;;;;;5071084;28;20433;-45
2022/11/17 07:33:16;;;;;;;11.03;9.83;;;;;;;;;;5071441;28;20437;-46
2022/11/17 07:35:42;;;;;;;13.47;9.80;;;;;;;;;;5071798;28;20461;-45
2022/11/17 07:38:08;;;;;;;13.37;10.40;;;;;;;;;;5071328;28;20567;-45
2022/11/17 07:40:35;;;;;;;11.57;10.07;;;;;;;;;;5070338;28;20595;-44
2022/11/17 07:43:01;;;;;;;12.37;11.07;;;;;;;;;;5070559;28;20434;-44
2022/11/17 07:45:28;;;;;;;11.20;10.07;;;;;;;;;;5071036;28;20438;-44
2022/11/17 07:47:55;;;;;;;10.60;9.50;;;;;;;;;;5070574;28;20950;-44
2022/11/17 07:50:21;;;;;;;11.70;10.50;;;;;;;;;;5070976;28;20776;-44
2022/11/17 07:52:48;;;;;;;13.03;11.00;;;;;;;;;;5070912;28;20520;-43
2022/11/17 07:55:14;;;;;;;11.37;10.17;;;;;;;;;;5071430;28;20442;-45
2022/11/17 07:57:40;;;;;;;11.77;10.13;;;;;;;;;;5071509;28;20430;-44
2022/11/17 08:00:06;;;;;;;11.30;9.50;;;;;;;;;;5070763;28;20539;-46
2022/11/17 08:02:34;;;;;;;11.17;8.83;;;;;;;;;;5073992;28;20464;-44
2022/11/17 08:05:00;;;;;;;9.43;8.40;;;;;;;;;;5074851;28;20442;-44
2022/11/17 08:07:26;;;;;;;10.70;8.90;;;;;;;;;;5074183;28;20499;-45
2022/11/17 08:09:52;;;;;;;11.50;9.20;;;;;;;;;;5074978;28;20481;-49
2022/11/17 08:12:18;;;;;;;10.37;9.27;;;;;;;;;;5075005;28;20422;-45
2022/11/17 08:14:44;;;;;;;13.90;11.67;;;;;;;;;;5075398;28;20437;-45
2022/11/17 08:17:10;;;;;;;11.63;9.73;;;;;;;;;;5075416;28;20491;-45
2022/11/17 08:19:37;;;;;;;10.47;9.37;;;;;;;;;;5074769;28;20526;-44
2022/11/17 08:22:03;;;;;;;10.17;9.17;;;;;;;;;;5074842;28;20572;-45
2022/11/17 08:24:29;;;;;;;10.60;9.50;;;;;;;;;;5074467;28;20452;-45
2022/11/17 08:26:55;;;;;;;11.20;8.97;;;;;;;;;;5074698;28;20460;-45
2022/11/17 08:29:22;;;;;;;10.57;9.03;;;;;;;;;;5074003;28;20196;-46
2022/11/17 08:31:48;;;;;;;11.10;8.60;;;;;;;;;;5074832;28;20517;-45
2022/11/17 08:34:14;;;;;;;10.37;8.27;;;;;;;;;;5074627;28;20885;-45
2022/11/17 08:36:41;;;;;;;10.10;9.07;;;;;;;;;;5074521;28;20444;-45
2022/11/17 08:39:08;;;;;;;9.73;8.73;;;;;;;;;;5074518;28;20437;-44
2022/11/17 08:41:34;;;;;;;10.40;8.80;;;;;;;;;;5074345;28;21089;-45
2022/11/17 08:44:00;;;;;;;10.03;8.93;;;;;;;;;;5074542;28;20422;-46
2022/11/17 08:46:26;;;;;;;10.03;8.40;;;;;;;;;;5074412;28;20708;-44
2022/11/17 08:48:52;;;;;;;9.33;8.23;;;;;;;;;;5073961;28;20465;-44
2022/11/17 08:51:18;;;;;;;9.47;8.57;;;;;;;;;;5074308;28;20841;-44
2022/11/17 08:53:45;;;;;;;9.30;8.40;;;;;;;;;;5074351;28;20956;-44
2022/11/17 08:56:12;;;;;;;9.47;8.10;;;;;;;;;;5074343;28;20500;-44
2022/11/17 08:58:38;;;;;;;8.57;7.43;;;;;;;;;;5074240;28;20471;-44
2022/11/17 09:01:06;;;;;;;9.50;8.00;;;;;;;;;;5074133;28;20909;-44
2022/11/17 09:03:32;;;;;;;9.97;7.83;;;;;;;;;;5069194;28;20442;-44
2022/11/17 09:05:58;;;;;;;9.60;7.67;;;;;;;;;;5074146;28;20487;-44
2022/11/17 09:08:24;;;;;;;9.13;8.17;;;;;;;;;;5073586;28;20449;-44
2022/11/17 09:10:52;;;;;;;9.43;7.83;;;;;;;;;;5073282;28;20430;-44
2022/11/17 09:13:18;;;;;;;8.90;7.80;;;;;;;;;;5072804;28;20437;-44
2022/11/17 09:15:44;;;;;;;8.10;7.30;;;;;;;;;;5073105;28;21053;-44
2022/11/17 09:18:10;;;;;;;9.03;8.13;;;;;;;;;;5073516;28;20434;-43
2022/11/17 09:20:36;;;;;;;9.60;7.87;;;;;;;;;;5073418;28;20573;-43
2022/11/17 09:23:02;;;;;;;8.33;7.53;;;;;;;;;;5073742;28;20457;-43
2022/11/17 09:25:28;;;;;;;9.10;7.80;;;;;;;;;;5073707;28;20465;-44
2022/11/17 09:27:55;;;;;;;8.17;7.23;;;;;;;;;;5070179;28;20457;-44
2022/11/17 09:30:22;;;;;;;8.80;7.67;;;;;;;;;;5073759;28;20487;-44
2022/11/17 09:32:48;;;;;;;9.13;8.23;;;;;;;;;;5073539;28;20553;-44
2022/11/17 09:35:14;;;;;;;10.03;7.83;;;;;;;;;;5073889;28;20441;-44
2022/11/17 09:37:40;;;;;;;9.50;7.80;;;;;;;;;;5073616;28;20460;-45
2022/11/17 09:40:07;;;;;;;8.67;7.77;;;;;;;;;;5073021;28;20877;-44
2022/11/17 09:42:37;;;;;;;8.60;7.70;;;;;;;;;;5073201;28;20207;-44
2022/11/17 09:45:09;;;;;;;8.30;7.50;;;;;;;;;;5072580;28;20847;-44
2022/11/17 09:47:39;;;;;;;8.27;7.43;;;;;;;;;;5073346;28;20446;-44
2022/11/17 09:50:15;;;;;;;9.23;8.23;;;;;;;;;;5073012;28;20473;-44
2022/11/17 09:52:45;;;;;;;9.57;8.57;;;;;;;;;;5073242;28;20483;-44
2022/11/17 09:55:17;;;;;;;7.90;7.10;;;;;;;;;;5072438;28;20464;-43
2022/11/17 09:57:44;;;;;;;9.47;7.70;;;;;;;;;;5073401;28;20456;-44
2022/11/17 10:00:14;;;;;;;9.33;8.17;;;;;;;;;;5073026;28;20802;-44
2022/11/17 10:02:40;;;;;;;8.53;7.50;;;;;;;;;;5072675;28;20444;-44
2022/11/17 10:05:11;;;;;;;8.27;7.40;;;;;;;;;;5072778;28;20438;-44
2022/11/17 10:07:38;;;;;;;8.17;7.37;;;;;;;;;;5072908;28;20932;-44
2022/11/17 10:10:05;;;;;;;7.37;6.60;;;;;;;;;;5072979;28;20947;-44
2022/11/17 10:12:33;;;;;;;9.27;7.57;;;;;;;;;;5072556;28;20499;-44
2022/11/17 10:15:09;;;;;;;9.13;8.10;;;;;;;;;;5072666;28;20442;-44
2022/11/17 10:17:38;;;;;;;7.70;6.90;;;;;;;;;;5072940;28;20480;-44
2022/11/17 10:20:13;;;;;;;8.20;6.80;;;;;;;;;;5071585;28;20438;-44
2022/11/17 10:22:39;;;;;;;8.10;7.30;;;;;;;;;;5071605;28;20457;-44
2022/11/17 10:25:19;;;;;;;10.67;7.33;;;;;;;;;;5071681;28;20939;-44
2022/11/17 10:27:51;;;;;;;9.00;7.00;;;;;;;;;;5072564;28;20433;-44
2022/11/17 10:30:21;;;;;;;6.93;6.23;;;;;;;;;;5072605;28;20425;-44
2022/11/17 10:32:49;;;;;;;7.20;6.33;;;;;;;;;;5072507;28;20472;-44
2022/11/17 10:35:16;;;;;;;7.43;6.67;;;;;;;;;;5072433;28;20441;-44
2022/11/17 10:37:44;;;;;;;7.40;6.63;;;;;;;;;;5072457;28;20461;-43
2022/11/17 10:40:17;;;;;;;7.53;6.67;;;;;;;;;;5067564;28;20442;-43
2022/11/17 10:42:53;;;;;;;7.73;6.80;;;;;;;;;;5072139;28;20544;-43
2022/11/17 10:45:19;;;;;;;7.67;6.97;;;;;;;;;;5072294;28;20437;-43
2022/11/17 10:47:45;;;;;;;7.83;6.83;;;;;;;;;;5072431;28;20441;-43
2022/11/17 10:50:17;;;;;;;7.13;6.43;;;;;;;;;;5071998;28;20449;-43
2022/11/17 10:52:43;;;;;;;7.20;6.47;;;;;;;;;;5071213;28;20931;-44
2022/11/17 10:55:18;;;;;;;6.90;6.20;;;;;;;;;;5071792;28;20520;-43
2022/11/17 10:57:45;;;;;;;7.10;6.27;;;;;;;;;;5071672;28;20491;-44
2022/11/17 11:00:21;;;;;;;8.73;6.40;;;;;;;;;;5071690;28;20928;-43
2022/11/17 11:02:47;;;;;;;7.10;6.40;;;;;;;;;;5068181;28;20445;-44
2022/11/17 11:05:14;;;;;;;7.83;6.43;;;;;;;;;;5071877;28;20434;-44
2022/11/17 11:07:42;;;;;;;7.27;6.40;;;;;;;;;;5071814;28;20680;-44
2022/11/17 11:10:12;;;;;;;6.70;6.00;;;;;;;;;;5071690;28;20484;-44
2022/11/17 11:13:30;;;;;;;6.27;5.63;;;;;;;;;;5071461;28;20437;-44
2022/11/17 11:15:50;;;;;;;6.63;5.93;;;;;;;;;;5070024;28;20575;-44
2022/11/17 11:18:17;;;;;;;6.30;5.63;;;;;;;;;;5072315;28;20844;-45
2022/11/17 11:20:47;;;;;;;7.17;6.30;;;;;;;;;;5071770;28;20840;-45
2022/11/17 11:23:18;;;;;;;6.40;5.80;;;;;;;;;;5072036;28;20479;-45
2022/11/17 11:25:48;;;;;;;6.33;5.73;;;;;;;;;;5071934;28;20448;-45
2022/11/17 11:28:17;;;;;;;6.63;5.50;;;;;;;;;;5071907;28;20925;-43
2022/11/17 11:30:51;;;;;;;6.47;5.47;;;;;;;;;;5071864;28;20764;-42
2022/11/17 11:33:23;;;;;;;5.73;5.17;;;;;;;;;;5071891;28;20794;-45
2022/11/17 11:35:57;;;;;;;8.97;5.30;;;;;;;;;;5071755;28;20441;-44
2022/11/17 11:38:30;;;;;;;6.00;5.40;;;;;;;;;;5071846;28;20491;-43
2022/11/17 11:41:01;;;;;;;6.00;5.30;;;;;;;;;;5071864;28;20498;-44
2022/11/17 11:43:32;;;;;;;5.70;5.20;;;;;;;;;;5071752;28;20433;-44
2022/11/17 11:46:04;;;;;;;5.90;5.23;;;;;;;;;;5071948;28;20444;-44
2022/11/17 11:48:32;;;;;;;5.73;5.03;;;;;;;;;;5071466;28;20573;-44
2022/11/17 11:50:59;;;;;;;5.97;5.20;;;;;;;;;;5071747;28;20876;-44
2022/11/17 11:53:31;;;;;;;5.07;4.57;;;;;;;;;;5071653;28;20436;-44
2022/11/17 11:56:13;;;;;;;5.20;4.70;;;;;;;;;;5071820;28;20963;-44
2022/11/17 11:58:42;;;;;;;4.60;4.17;;;;;;;;;;5071244;28;20461;-44
2022/11/17 12:01:10;;;;;;;5.27;4.77;;;;;;;;;;5069627;28;20481;-43
2022/11/17 12:03:40;;;;;;;5.10;4.60;;;;;;;;;;5069854;28;20426;-43
2022/11/17 12:09:01;;;;;;;4.97;4.47;;;;;;;;;;5071370;28;20445;-44
2022/11/17 12:14:15;;;;;;;4.77;4.37;;;;;;;;;;5071435;28;20468;-43
2022/11/17 12:16:43;;;;;;;4.50;4.10;;;;;;;;;;5069923;28;20437;-43
2022/11/17 12:19:39;;;;;;;3.67;3.37;;;;;;;;;;5070739;28;20505;-43
2022/11/17 12:22:06;;;;;;;5.43;3.87;;;;;;;;;;5070766;28;20543;-44
2022/11/17 12:24:33;;;;;;;3.70;3.40;;;;;;;;;;5071000;28;20465;-43
2022/11/17 12:27:14;;;;;;;4.63;4.10;;;;;;;;;;5071104;28;20442;-43
2022/11/17 12:29:46;;;;;;;6.50;4.27;;;;;;;;;;5071033;28;20802;-44
2022/11/17 12:32:35;;;;;;;3.87;3.57;;;;;;;;;;5070862;28;20457;-44
2022/11/17 12:35:15;;;;;;;4.00;3.70;;;;;;;;;;5070752;28;20457;-44
2022/11/17 12:37:43;;;;;;;4.40;4.00;;;;;;;;;;5069798;28;20432;-44
2022/11/17 12:40:29;;;;;;;4.90;4.03;;;;;;;;;;5071056;28;20466;-44
2022/11/17 12:43:10;;;;;;;4.10;3.70;;;;;;;;;;5070798;28;20418;-44
2022/11/17 12:45:53;;;;;;;4.70;4.27;;;;;;;;;;5070552;28;20425;-44
2022/11/17 12:48:20;;;;;;;4.10;3.53;;;;;;;;;;5073380;28;20477;-44
2022/11/17 12:50:52;;;;;;;5.30;4.30;;;;;;;;;;5073252;28;20799;-45
2022/11/17 12:53:26;;;;;;;5.40;4.50;;;;;;;;;;5074750;28;20441;-45
2022/11/17 12:55:58;;;;;;;3.90;3.60;;;;;;;;;;5074800;28;20437;-44
2022/11/17 12:58:28;;;;;;;3.60;3.27;;;;;;;;;;5074600;28;20442;-45
2022/11/17 13:01:00;;;;;;;4.07;3.67;;;;;;;;;;5074559;28;20500;-44
2022/11/17 13:03:32;;;;;;;4.33;3.93;;;;;;;;;;5074460;28;20503;-45
2022/11/17 13:06:08;;;;;;;4.13;3.77;;;;;;;;;;5074524;28;20464;-45
2022/11/17 13:08:34;;;;;;;4.20;3.80;;;;;;;;;;5074280;28;21046;-45
2022/11/17 13:11:03;;;;;;;3.80;3.50;;;;;;;;;;5074417;28;20563;-44
2022/11/17 13:13:29;;;;;;;6.43;5.40;;;;;;;;;;5074221;28;20866;-44
2022/11/17 13:15:57;;;;;;;4.20;3.47;;;;;;;;;;5074289;28;20853;-44
2022/11/17 13:18:29;;;;;;;4.93;4.53;;;;;;;;;;5074040;28;20448;-44
2022/11/17 13:20:55;;;;;;;4.20;3.70;;;;;;;;;;5074091;28;20843;-44
2022/11/17 13:23:22;;;;;;;4.70;4.20;;;;;;;;;;5074223;28;20433;-44
2022/11/17 13:25:48;;;;;;;4.13;3.73;;;;;;;;;;5074092;28;20434;-44
2022/11/17 13:28:27;;;;;;;3.60;3.30;;;;;;;;;;5074264;28;20995;-45
2022/11/17 13:30:53;;;;;;;3.87;3.57;;;;;;;;;;5074144;28;20805;-44
2022/11/17 13:33:22;;;;;;;4.00;3.50;;;;;;;;;;5074019;28;20440;-44
2022/11/17 13:35:50;;;;;;;4.10;3.80;;;;;;;;;;5073727;28;20510;-44
2022/11/17 13:38:18;;;;;;;4.53;4.13;;;;;;;;;;5073663;28;20912;-44
2022/11/17 13:40:44;;;;;;;3.30;3.00;;;;;;;;;;5073715;28;20506;-44
2022/11/17 13:43:12;;;;;;;3.47;3.17;;;;;;;;;;5073884;28;20458;-45
2022/11/17 13:45:39;;;;;;;3.70;3.30;;;;;;;;;;5073630;28;20503;-45
2022/11/17 13:48:05;;;;;;;3.97;3.53;;;;;;;;;;5073428;28;20442;-45
2022/11/17 13:50:35;;;;;;;4.40;4.00;;;;;;;;;;5073777;28;20441;-44
2022/11/17 13:53:03;;;;;;;4.03;3.70;;;;;;;;;;5073529;28;20857;-44
2022/11/17 13:55:30;;;;;;;3.83;3.17;;;;;;;;;;5073520;28;20441;-44
2022/11/17 13:57:57;;;;;;;3.53;3.23;;;;;;;;;;5073545;28;20438;-44
2022/11/17 14:00:24;;;;;;;3.33;2.90;;;;;;;;;;5073424;28;20442;-44
2022/11/17 14:02:53;;;;;;;3.27;2.97;;;;;;;;;;5073384;28;20442;-44
2022/11/17 14:05:21;;;;;;;3.67;3.37;;;;;;;;;;5073308;28;20441;-44
2022/11/17 14:07:49;;;;;;;3.60;3.30;;;;;;;;;;5073205;28;20434;-45
2022/11/17 14:10:26;;;;;;;3.20;2.97;;;;;;;;;;5073348;28;20944;-44
2022/11/17 14:12:53;;;;;;;3.30;3.00;;;;;;;;;;5073323;28;20445;-44
2022/11/17 14:15:22;;;;;;;4.13;3.73;;;;;;;;;;5073341;28;20863;-45
2022/11/17 14:17:48;;;;;;;3.60;3.30;;;;;;;;;;5073020;28;20454;-44
2022/11/17 14:20:19;;;;;;;3.90;3.60;;;;;;;;;;5073179;28;20854;-44
2022/11/17 14:23:00;;;;;;;3.63;3.33;;;;;;;;;;5072982;28;20429;-44
2022/11/17 14:25:26;;;;;;;3.17;2.97;;;;;;;;;;5073094;28;20530;-44
2022/11/17 14:27:52;;;;;;;4.50;3.60;;;;;;;;;;5073072;28;20438;-44
2022/11/17 14:30:18;;;;;;;3.23;3.03;;;;;;;;;;5072910;28;20488;-44
2022/11/17 14:32:44;;;;;;;3.77;3.40;;;;;;;;;;5072699;28;20198;-45
2022/11/17 14:35:12;;;;;;;3.53;3.20;;;;;;;;;;5072790;28;20469;-45
2022/11/17 14:37:38;;;;;;;4.23;3.40;;;;;;;;;;5072337;28;20440;-45
2022/11/17 14:40:08;;;;;;;5.57;4.30;;;;;;;;;;5072730;28;20478;-45
2022/11/17 14:42:34;;;;;;;3.77;3.47;;;;;;;;;;5072403;28;20470;-45
2022/11/17 14:45:00;;;;;;;3.60;3.30;;;;;;;;;;5072563;28;20517;-45
2022/11/17 14:47:26;;;;;;;4.33;3.80;;;;;;;;;;5072366;28;20646;-45
2022/11/17 14:49:52;;;;;;;3.80;3.50;;;;;;;;;;5072050;28;21012;-43
2022/11/17 14:52:18;;;;;;;4.00;3.70;;;;;;;;;;5072467;28;20481;-45
2022/11/17 14:54:44;;;;;;;4.47;4.07;;;;;;;;;;5072341;28;20223;-45
2022/11/17 14:57:13;;;;;;;4.27;3.87;;;;;;;;;;5072450;28;20231;-45
2022/11/17 14:59:39;;;;;;;3.70;3.40;;;;;;;;;;5072230;28;20525;-45
2022/11/17 15:02:05;;;;;;;3.83;3.43;;;;;;;;;;5072032;28;20560;-45
2022/11/17 15:04:31;;;;;;;3.60;3.30;;;;;;;;;;5069621;28;20741;-45
2022/11/17 15:06:57;;;;;;;3.87;3.57;;;;;;;;;;5071828;28;20442;-45
2022/11/17 15:09:23;;;;;;;3.80;3.50;;;;;;;;;;5071327;28;20540;-45
2022/11/17 15:11:50;;;;;;;3.97;3.57;;;;;;;;;;5071508;28;20514;-45
2022/11/17 15:14:18;;;;;;;4.50;3.87;;;;;;;;;;5071772;28;20283;-45
2022/11/17 15:16:44;;;;;;;3.80;3.50;;;;;;;;;;5071680;28;20549;-45
2022/11/17 15:19:11;;;;;;;4.13;3.73;;;;;;;;;;5071594;28;20464;-45
2022/11/17 15:21:37;;;;;;;4.10;3.70;;;;;;;;;;5070897;28;20485;-45
2022/11/17 15:24:05;;;;;;;4.10;3.70;;;;;;;;;;5071482;28;20519;-45